createdAt,value
2019-05-07T00:00:58.120Z,5.92
2019-05-07T00:03:28.760Z,6.85
2019-05-07T00:05:57.940Z,4.20
2019-05-07T00:08:28.487Z,5.60
2019-05-07T00:10:57.339Z,5.97
2019-05-07T00:13:27.841Z,4.17
2019-05-07T00:15:58.201Z,6.15
2019-05-07T00:18:28.660Z,4.90
2019-05-07T00:21:00.639Z,6.40
2019-05-07T00:23:32.349Z,4.53
2019-05-07T00:26:02.329Z,6.12
2019-05-07T00:28:32.440Z,4.65
2019-05-07T00:31:02.841Z,3.72
2019-05-07T00:33:32.860Z,6.62
2019-05-07T00:36:03.420Z,4.10
2019-05-07T00:38:33.822Z,5.62
2019-05-07T00:41:12.334Z,4.78
2019-05-07T00:43:45.680Z,5.70
2019-05-07T00:46:19.740Z,5.95
2019-05-07T00:48:49.047Z,5.80
2019-05-07T00:51:34.747Z,5.25
2019-05-07T00:54:05.439Z,4.65
2019-05-07T00:59:05.280Z,5.58
2019-05-07T01:01:36.020Z,6.58
2019-05-07T01:04:05.263Z,5.00
2019-05-07T01:06:34.500Z,5.05
2019-05-07T01:09:03.427Z,4.47
2019-05-07T01:11:33.726Z,4.80
2019-05-07T01:14:04.599Z,5.00
2019-05-07T01:19:02.605Z,5.30
2019-05-07T01:21:32.450Z,4.42
2019-05-07T01:24:03.283Z,5.00
2019-05-07T01:29:03.759Z,6.97
2019-05-07T01:31:35.021Z,5.58
2019-05-07T01:34:05.500Z,5.05
2019-05-07T01:36:35.021Z,5.80
2019-05-07T01:39:06.421Z,3.92
2019-05-07T01:41:38.639Z,4.00
2019-05-07T01:44:07.680Z,4.97
2019-05-07T01:46:36.600Z,3.92
2019-05-07T01:49:05.466Z,4.47
2019-05-07T01:51:34.668Z,5.83
2019-05-07T01:54:03.720Z,4.65
2019-05-07T01:56:34.160Z,4.75
2019-05-07T02:01:54.021Z,3.35
2019-05-07T02:04:29.588Z,5.90
2019-05-07T02:07:16.461Z,3.92
2019-05-07T02:09:59.496Z,5.25
2019-05-07T02:12:31.868Z,3.55
2019-05-07T02:15:02.730Z,4.97
2019-05-07T02:20:02.660Z,5.03
2019-05-07T02:22:33.624Z,6.65
2019-05-07T02:27:33.012Z,3.52
2019-05-07T02:30:04.187Z,4.45
2019-05-07T02:32:33.491Z,6.92
2019-05-07T02:35:05.427Z,4.97
2019-05-07T02:37:48.262Z,3.08
2019-05-07T02:40:13.962Z,5.42
2019-05-07T02:42:44.076Z,5.87
2019-05-07T02:47:53.305Z,5.72
2019-05-07T02:50:25.341Z,5.15
2019-05-07T02:52:59.509Z,4.37
2019-05-07T02:55:43.391Z,5.30
2019-05-07T02:58:13.696Z,5.53
2019-05-07T03:03:15.202Z,5.12
2019-05-07T03:05:44.021Z,3.75
2019-05-07T03:08:14.023Z,4.58
2019-05-07T03:10:43.826Z,5.20
2019-05-07T03:13:14.027Z,4.40
2019-05-07T03:15:44.007Z,4.53
2019-05-07T03:18:13.801Z,4.85
2019-05-07T03:20:46.160Z,5.15
2019-05-07T03:23:18.661Z,4.95
2019-05-07T03:25:54.135Z,6.58
2019-05-07T03:28:25.271Z,4.83
2019-05-07T03:30:58.900Z,4.67
2019-05-07T03:33:36.926Z,3.85
2019-05-07T03:36:08.152Z,5.35
2019-05-07T03:38:37.541Z,5.92
2019-05-07T03:41:06.436Z,5.15
2019-05-07T03:43:36.888Z,4.78
2019-05-07T03:46:16.342Z,4.78
2019-05-07T03:48:46.663Z,5.40
2019-05-07T03:51:15.848Z,5.15
2019-05-07T03:53:45.761Z,4.97
2019-05-07T03:56:15.056Z,5.08
2019-05-07T03:58:45.116Z,4.42
2019-05-07T04:01:14.136Z,5.35
2019-05-07T04:03:44.751Z,4.30
2019-05-07T04:06:16.082Z,6.62
2019-05-07T04:08:48.137Z,4.97
2019-05-07T04:11:18.516Z,4.78
2019-05-07T04:13:49.198Z,5.50
2019-05-07T04:16:23.666Z,5.62
2019-05-07T04:18:53.053Z,5.10
2019-05-07T04:21:23.175Z,4.70
2019-05-07T04:23:54.217Z,5.50
2019-05-07T04:26:24.919Z,5.65
2019-05-07T04:29:04.852Z,5.72
2019-05-07T04:31:35.416Z,4.72
2019-05-07T04:34:06.117Z,5.67
2019-05-07T04:39:05.656Z,5.37
2019-05-07T04:41:34.599Z,4.90
2019-05-07T04:44:04.710Z,4.20
2019-05-07T04:46:35.476Z,4.55
2019-05-07T04:51:35.657Z,3.83
2019-05-07T04:54:04.540Z,3.75
2019-05-07T04:56:35.296Z,6.15
2019-05-07T05:01:34.777Z,3.58
2019-05-07T05:06:34.116Z,5.05
2019-05-07T05:09:06.156Z,4.05
2019-05-07T05:11:36.236Z,4.62
2019-05-07T05:14:07.692Z,6.47
2019-05-07T05:16:36.296Z,5.78
2019-05-07T05:19:06.156Z,4.05
2019-05-07T05:21:52.711Z,5.12
2019-05-07T05:24:29.012Z,5.53
2019-05-07T05:26:58.835Z,7.60
2019-05-07T05:29:28.416Z,5.97
2019-05-07T05:31:57.955Z,5.75
2019-05-07T05:34:26.906Z,9.40
2019-05-07T05:36:58.218Z,10.45
2019-05-07T05:39:27.136Z,9.45
2019-05-07T05:41:59.116Z,8.40
2019-05-07T05:44:32.030Z,5.37
2019-05-07T05:47:02.512Z,7.60
2019-05-07T05:49:34.976Z,7.30
2019-05-07T05:52:07.172Z,6.15
2019-05-07T05:54:42.611Z,8.63
2019-05-07T05:57:28.075Z,6.40
2019-05-07T05:59:58.899Z,10.25
2019-05-07T06:02:46.636Z,14.13
2019-05-07T06:05:35.407Z,11.90
2019-05-07T06:08:19.780Z,7.92
2019-05-07T06:11:05.776Z,6.08
2019-05-07T06:13:37.582Z,12.58
2019-05-07T06:16:12.578Z,10.38
2019-05-07T06:18:46.254Z,17.40
2019-05-07T06:21:24.094Z,9.53
2019-05-07T06:23:55.497Z,8.30
2019-05-07T06:26:25.543Z,6.12
2019-05-07T06:28:56.354Z,7.15
2019-05-07T06:33:54.857Z,6.85
2019-05-07T06:36:24.836Z,8.45
2019-05-07T06:38:57.036Z,9.58
2019-05-07T06:41:45.497Z,9.25
2019-05-07T06:44:16.117Z,14.58
2019-05-07T06:46:46.236Z,10.40
2019-05-07T06:49:15.248Z,7.92
2019-05-07T06:51:47.810Z,13.03
2019-05-07T06:54:18.997Z,8.03
2019-05-07T06:56:49.091Z,8.43
2019-05-07T06:59:22.566Z,6.75
2019-05-07T07:01:55.922Z,9.85
2019-05-07T07:04:26.458Z,8.80
2019-05-07T07:06:56.917Z,11.43
2019-05-07T07:09:27.556Z,11.97
2019-05-07T07:12:01.541Z,12.80
2019-05-07T07:14:33.136Z,10.10
2019-05-07T07:17:04.877Z,11.48
2019-05-07T07:19:36.248Z,6.60
2019-05-07T07:22:05.425Z,11.48
2019-05-07T07:24:36.117Z,5.30
2019-05-07T07:27:05.057Z,7.70
2019-05-07T07:29:36.417Z,7.28
2019-05-07T07:32:09.997Z,7.17
2019-05-07T07:34:42.635Z,7.12
2019-05-07T07:37:22.916Z,11.18
2019-05-07T07:39:54.780Z,11.88
2019-05-07T07:42:25.421Z,5.87
2019-05-07T07:44:55.839Z,8.50
2019-05-07T07:47:25.817Z,7.75
2019-05-07T07:49:54.511Z,10.35
2019-05-07T07:52:23.877Z,9.73
2019-05-07T07:54:53.138Z,6.40
2019-05-07T07:57:42.715Z,7.08
2019-05-07T08:00:32.877Z,6.20
2019-05-07T08:03:03.499Z,7.03
2019-05-07T08:05:32.662Z,7.00
2019-05-07T08:08:02.261Z,9.23
2019-05-07T08:10:32.978Z,7.72
2019-05-07T08:13:02.173Z,8.38
2019-05-07T08:15:33.024Z,9.30
2019-05-07T08:18:03.563Z,4.95
2019-05-07T08:20:32.778Z,8.13
2019-05-07T08:23:02.976Z,8.55
2019-05-07T08:25:52.682Z,8.13
2019-05-07T08:28:23.519Z,7.30
2019-05-07T08:30:56.777Z,5.33
2019-05-07T08:33:28.937Z,7.47
2019-05-07T08:36:12.079Z,7.03
2019-05-07T08:38:58.136Z,8.05
2019-05-07T08:41:27.756Z,8.00
2019-05-07T08:44:11.245Z,5.30
2019-05-07T08:46:47.356Z,7.97
2019-05-07T08:49:31.708Z,6.55
2019-05-07T08:52:03.725Z,8.70
2019-05-07T08:54:33.149Z,7.58
2019-05-07T08:57:02.369Z,6.80
2019-05-07T08:59:33.233Z,6.97
2019-05-07T09:02:03.002Z,8.00
2019-05-07T09:04:32.821Z,6.93
2019-05-07T09:07:03.116Z,6.00
2019-05-07T09:09:32.588Z,5.15
2019-05-07T09:12:02.999Z,7.53
2019-05-07T09:14:32.735Z,6.85
2019-05-07T09:17:02.630Z,8.35
2019-05-07T09:19:46.948Z,6.47
2019-05-07T09:22:04.016Z,5.33
2019-05-07T09:24:33.434Z,8.00
2019-05-07T09:27:19.025Z,5.47
2019-05-07T09:30:07.825Z,8.85
2019-05-07T09:32:43.978Z,4.55
2019-05-07T09:35:26.704Z,7.17
2019-05-07T09:37:58.385Z,5.90
2019-05-07T09:40:27.319Z,6.05
2019-05-07T09:42:57.893Z,6.22
2019-05-07T09:45:27.529Z,6.33
2019-05-07T09:47:58.132Z,6.87
2019-05-07T09:50:27.184Z,4.80
2019-05-07T09:52:57.344Z,5.50
2019-05-07T09:55:27.913Z,7.22
2019-05-07T09:57:58.507Z,4.45
2019-05-07T10:00:29.090Z,7.00
2019-05-07T10:02:59.083Z,6.05
2019-05-07T10:05:28.164Z,8.08
2019-05-07T10:07:58.131Z,5.97
2019-05-07T10:10:28.764Z,5.30
2019-05-07T10:13:01.704Z,6.97
2019-05-07T10:15:30.104Z,4.65
2019-05-07T10:18:03.684Z,5.20
2019-05-07T10:20:32.918Z,5.53
2019-05-07T10:23:02.419Z,7.08
2019-05-07T10:25:40.385Z,6.28
2019-05-07T10:28:12.542Z,7.10
2019-05-07T10:30:44.184Z,7.92
2019-05-07T10:33:13.174Z,4.22
2019-05-07T10:35:43.479Z,4.55
2019-05-07T10:38:12.558Z,4.40
2019-05-07T10:40:41.523Z,5.80
2019-05-07T10:43:10.485Z,5.90
2019-05-07T10:45:42.186Z,6.45
2019-05-07T10:48:12.765Z,6.12
2019-05-07T10:50:44.625Z,5.17
2019-05-07T10:53:14.343Z,5.53
2019-05-07T10:55:45.670Z,5.08
2019-05-07T10:58:14.864Z,4.95
2019-05-07T11:00:43.764Z,5.08
2019-05-07T11:03:12.850Z,6.28
2019-05-07T11:05:43.012Z,5.78
2019-05-07T11:08:14.884Z,5.42
2019-05-07T11:10:46.203Z,5.58
2019-05-07T11:13:15.043Z,4.97
2019-05-07T11:15:45.504Z,4.80
2019-05-07T11:18:18.771Z,4.15
2019-05-07T11:20:50.561Z,4.00
2019-05-07T11:25:46.683Z,5.53
2019-05-07T11:28:15.744Z,4.95
2019-05-07T11:30:46.144Z,4.75
2019-05-07T11:33:15.285Z,4.75
2019-05-07T11:35:44.204Z,3.83
2019-05-07T11:38:20.755Z,3.83
2019-05-07T11:40:45.383Z,4.42
2019-05-07T11:45:48.583Z,5.80
2019-05-07T11:48:18.805Z,3.58
2019-05-07T11:51:03.790Z,2.75
2019-05-07T11:53:29.684Z,4.10
2019-05-07T11:56:02.675Z,3.85
2019-05-07T11:58:33.251Z,4.22
2019-05-07T12:01:12.300Z,3.20
2019-05-07T12:03:42.818Z,3.52
2019-05-07T12:06:12.456Z,4.58
2019-05-07T12:08:49.765Z,2.90
2019-05-07T12:11:16.703Z,3.00
2019-05-07T12:13:47.030Z,4.05
2019-05-07T12:16:16.427Z,3.45
2019-05-07T12:18:46.384Z,4.83
2019-05-07T12:21:20.970Z,3.90
2019-05-07T12:23:48.468Z,3.20
2019-05-07T12:26:18.803Z,3.62
2019-05-07T12:28:47.623Z,3.10
2019-05-07T12:31:24.524Z,4.53
2019-05-07T12:33:56.744Z,2.50
2019-05-07T12:36:28.203Z,3.60
2019-05-07T12:38:57.165Z,3.92
2019-05-07T12:41:33.036Z,4.90
2019-05-07T12:44:05.148Z,3.62
2019-05-07T12:46:34.132Z,3.83
2019-05-07T12:49:03.518Z,4.33
2019-05-07T12:51:37.432Z,5.50
2019-05-07T12:54:25.903Z,4.55
2019-05-07T12:56:56.545Z,4.72
2019-05-07T12:59:25.383Z,4.47
2019-05-07T13:01:59.363Z,2.72
2019-05-07T13:04:32.588Z,2.85
2019-05-07T13:07:03.227Z,3.83
2019-05-07T13:09:32.683Z,3.87
2019-05-07T13:12:03.034Z,3.22
2019-05-07T13:14:32.063Z,2.58
2019-05-07T13:17:02.762Z,3.72
2019-05-07T13:22:02.351Z,3.75
2019-05-07T13:24:32.100Z,4.77
2019-05-07T13:27:03.110Z,4.33
2019-05-07T13:29:33.624Z,4.67
2019-05-07T13:34:34.631Z,3.72
2019-05-07T13:37:04.743Z,2.85
2019-05-07T13:39:37.703Z,3.33
2019-05-07T13:42:08.624Z,3.25
2019-05-07T13:44:47.751Z,3.60
2019-05-07T13:47:27.087Z,3.30
2019-05-07T13:49:55.665Z,3.90
2019-05-07T13:52:25.204Z,5.12
2019-05-07T13:54:53.963Z,3.55
2019-05-07T13:57:24.484Z,3.30
2019-05-07T13:59:53.324Z,3.15
2019-05-07T14:02:31.777Z,3.77
2019-05-07T14:05:01.239Z,5.72
2019-05-07T14:07:32.242Z,5.80
2019-05-07T14:10:02.158Z,5.08
2019-05-07T14:12:33.828Z,7.00
2019-05-07T14:15:06.023Z,5.97
2019-05-07T14:17:36.145Z,8.20
2019-05-07T14:20:07.302Z,6.55
2019-05-07T14:22:36.903Z,4.08
2019-05-07T14:25:07.363Z,7.22
2019-05-07T14:27:37.824Z,4.42
2019-05-07T14:30:07.620Z,6.28
2019-05-07T14:32:57.288Z,3.47
2019-05-07T14:35:46.304Z,9.08
2019-05-07T14:38:22.541Z,7.33
2019-05-07T14:40:52.029Z,7.12
2019-05-07T14:43:23.564Z,9.45
2019-05-07T14:45:52.255Z,5.50
2019-05-07T14:48:23.125Z,7.75
2019-05-07T14:53:22.356Z,7.47
2019-05-07T14:55:51.604Z,13.28
2019-05-07T14:58:20.512Z,10.05
2019-05-07T15:00:51.827Z,7.00
2019-05-07T15:03:22.698Z,8.95
2019-05-07T15:05:52.723Z,10.35
2019-05-07T15:10:52.476Z,11.00
2019-05-07T15:13:25.432Z,9.73
2019-05-07T15:15:58.284Z,6.65
2019-05-07T15:18:28.995Z,6.25
2019-05-07T15:23:35.784Z,9.65
2019-05-07T15:26:04.974Z,7.72
2019-05-07T15:28:35.686Z,11.10
2019-05-07T15:33:54.127Z,6.45
2019-05-07T15:36:22.905Z,7.03
2019-05-07T15:38:52.194Z,3.77
2019-05-07T15:41:22.819Z,5.97
2019-05-07T15:43:52.186Z,8.03
2019-05-07T15:46:22.596Z,7.17
2019-05-07T15:48:52.606Z,10.28
2019-05-07T15:51:22.551Z,7.05
2019-05-07T15:53:53.165Z,7.55
2019-05-07T15:56:23.764Z,8.43
2019-05-07T15:58:52.327Z,12.65
2019-05-07T16:01:22.474Z,9.60
2019-05-07T16:03:54.337Z,7.60
2019-05-07T16:06:22.675Z,7.30
2019-05-07T16:08:56.373Z,9.25
2019-05-07T16:11:25.287Z,9.78
2019-05-07T16:14:04.918Z,11.18
2019-05-07T16:16:35.112Z,13.08
2019-05-07T16:19:09.123Z,11.75
2019-05-07T16:21:42.498Z,20.92
2019-05-07T16:24:12.332Z,13.48
2019-05-07T16:26:43.036Z,11.45
2019-05-07T16:29:13.336Z,14.00
2019-05-07T16:31:44.244Z,12.95
2019-05-07T16:34:12.723Z,13.85
2019-05-07T16:36:42.450Z,14.43
2019-05-07T16:39:12.225Z,14.87
2019-05-07T16:41:42.345Z,16.80
2019-05-07T16:44:12.323Z,13.98
2019-05-07T16:46:42.407Z,14.30
2019-05-07T16:49:12.059Z,24.15
2019-05-07T16:51:44.784Z,15.75
2019-05-07T16:54:13.982Z,23.27
2019-05-07T16:57:02.920Z,17.87
2019-05-07T16:59:32.375Z,16.17
2019-05-07T17:02:03.150Z,20.82
2019-05-07T17:04:32.167Z,15.48
2019-05-07T17:07:02.874Z,12.35
2019-05-07T17:09:32.216Z,15.83
2019-05-07T17:12:06.791Z,15.63
2019-05-07T17:14:36.424Z,19.30
2019-05-07T17:17:05.607Z,14.13
2019-05-07T17:19:36.324Z,14.45
2019-05-07T17:22:06.641Z,15.80
2019-05-07T17:24:35.632Z,24.00
2019-05-07T17:27:04.888Z,20.12
2019-05-07T17:29:36.293Z,15.20
2019-05-07T17:32:06.073Z,14.85
2019-05-07T17:34:35.107Z,16.37
2019-05-07T17:37:04.394Z,10.85
2019-05-07T17:39:33.564Z,13.72
2019-05-07T17:42:03.867Z,13.58
2019-05-07T17:44:36.004Z,18.67
2019-05-07T17:47:05.052Z,11.73
2019-05-07T17:49:38.088Z,16.10
2019-05-07T17:52:09.692Z,12.47
2019-05-07T17:54:37.864Z,13.13
2019-05-07T17:57:07.512Z,7.90
2019-05-07T17:59:36.313Z,9.25
2019-05-07T18:02:24.606Z,11.63
2019-05-07T18:04:54.611Z,11.03
2019-05-07T18:07:23.913Z,9.60
2019-05-07T18:09:52.862Z,14.68
2019-05-07T18:12:23.220Z,21.73
2019-05-07T18:14:52.929Z,13.62
2019-05-07T18:17:29.545Z,15.00
2019-05-07T18:19:59.779Z,13.45
2019-05-07T18:22:29.159Z,11.12
2019-05-07T18:24:58.384Z,8.80
2019-05-07T18:27:28.107Z,7.17
2019-05-07T18:29:57.488Z,9.40
2019-05-07T18:32:29.592Z,12.75
2019-05-07T18:35:02.375Z,7.20
2019-05-07T18:37:32.600Z,10.05
2019-05-07T18:40:03.027Z,8.83
2019-05-07T18:42:33.203Z,7.60
2019-05-07T18:45:03.126Z,6.83
2019-05-07T18:47:33.115Z,10.88
2019-05-07T18:50:02.870Z,10.08
2019-05-07T18:52:32.082Z,9.00
2019-05-07T18:58:06.164Z,10.68
2019-05-07T19:00:36.544Z,12.63
2019-05-07T19:03:05.764Z,12.47
2019-05-07T19:05:35.484Z,7.03
2019-05-07T19:08:08.698Z,14.43
2019-05-07T19:10:37.963Z,8.63
2019-05-07T19:13:08.644Z,8.63
2019-05-07T19:15:38.933Z,10.28
2019-05-07T19:20:37.865Z,9.15
2019-05-07T19:23:08.246Z,7.42
2019-05-07T19:25:37.791Z,7.12
2019-05-07T19:28:14.932Z,9.83
2019-05-07T19:30:49.213Z,8.28
2019-05-07T19:33:26.211Z,11.88
2019-05-07T19:35:54.563Z,7.05
2019-05-07T19:38:28.544Z,8.23
2019-05-07T19:40:59.185Z,7.45
2019-05-07T19:46:02.723Z,6.40
2019-05-07T19:48:32.644Z,7.33
2019-05-07T19:51:02.935Z,8.05
2019-05-07T19:53:34.344Z,7.28
2019-05-07T19:56:09.084Z,6.35
2019-05-07T19:58:41.945Z,7.12
2019-05-07T20:01:14.324Z,6.78
2019-05-07T20:03:46.004Z,9.33
2019-05-07T20:06:19.052Z,9.05
2019-05-07T20:08:49.472Z,10.08
2019-05-07T20:11:36.666Z,7.92
2019-05-07T20:14:10.028Z,8.33
2019-05-07T20:16:42.035Z,10.28
2019-05-07T20:19:15.824Z,6.35
2019-05-07T20:21:45.147Z,6.55
2019-05-07T20:24:14.167Z,8.58
2019-05-07T20:27:09.434Z,6.40
2019-05-07T20:29:42.663Z,5.17
2019-05-07T20:32:13.364Z,6.87
2019-05-07T20:34:44.472Z,5.80
2019-05-07T20:37:14.603Z,6.20
2019-05-07T20:39:45.212Z,7.47
2019-05-07T20:42:17.027Z,6.85
2019-05-07T20:44:46.747Z,8.08
2019-05-07T20:47:42.314Z,6.17
2019-05-07T20:50:14.741Z,5.78
2019-05-07T20:52:44.425Z,5.15
2019-05-07T20:55:33.890Z,5.83
2019-05-07T20:58:03.033Z,6.47
2019-05-07T21:00:32.708Z,6.42
2019-05-07T21:03:19.309Z,6.58
2019-05-07T21:05:53.224Z,6.22
2019-05-07T21:08:22.992Z,6.20
2019-05-07T21:10:53.566Z,5.08
2019-05-07T21:13:32.382Z,6.50
2019-05-07T21:15:53.085Z,6.25
2019-05-07T21:18:23.823Z,6.58
2019-05-07T21:23:24.443Z,5.85
2019-05-07T21:25:53.364Z,5.30
2019-05-07T21:28:26.084Z,8.88
2019-05-07T21:30:56.791Z,5.78
2019-05-07T21:33:26.131Z,7.50
2019-05-07T21:35:56.946Z,5.80
2019-05-07T21:40:58.512Z,5.15
2019-05-07T21:43:32.670Z,5.75
2019-05-07T21:46:04.644Z,7.92
2019-05-07T21:48:38.943Z,6.22
2019-05-07T21:51:08.192Z,6.80
2019-05-07T21:53:38.785Z,6.87
2019-05-07T21:56:12.225Z,4.67
2019-05-07T21:58:55.625Z,8.58
2019-05-07T22:01:32.854Z,6.95
2019-05-07T22:04:04.466Z,5.85
2019-05-07T22:06:33.904Z,6.58
2019-05-07T22:09:02.564Z,5.15
2019-05-07T22:11:32.306Z,7.83
2019-05-07T22:14:02.206Z,7.50
2019-05-07T22:16:33.166Z,7.83
2019-05-07T22:19:02.815Z,7.95
2019-05-07T22:21:33.906Z,6.03
2019-05-07T22:24:02.843Z,9.05
2019-05-07T22:26:32.330Z,6.05
2019-05-07T22:29:03.143Z,5.60
2019-05-07T22:31:49.107Z,8.53
2019-05-07T22:34:19.611Z,4.97
2019-05-07T22:36:49.504Z,8.20
2019-05-07T22:39:19.163Z,6.27
2019-05-07T22:41:51.524Z,7.60
2019-05-07T22:44:25.431Z,8.33
2019-05-07T22:46:52.746Z,10.20
2019-05-07T22:49:22.883Z,8.15
2019-05-07T22:51:54.576Z,7.20
2019-05-07T22:54:25.384Z,6.67
2019-05-07T22:57:14.166Z,8.48
2019-05-07T22:59:43.302Z,7.50
2019-05-07T23:02:13.424Z,9.45
2019-05-07T23:04:43.644Z,7.08
2019-05-07T23:07:12.868Z,9.60
2019-05-07T23:09:44.689Z,7.42
2019-05-07T23:14:43.404Z,6.58
2019-05-07T23:17:14.192Z,8.90
2019-05-07T23:22:13.571Z,7.97
2019-05-07T23:24:42.701Z,7.20
2019-05-07T23:27:12.158Z,8.05
2019-05-07T23:29:43.907Z,11.15
2019-05-07T23:34:43.385Z,9.30
2019-05-07T23:37:12.024Z,8.38
2019-05-07T23:39:51.850Z,9.65
2019-05-07T23:42:38.003Z,10.32
2019-05-07T23:45:09.048Z,11.10
2019-05-07T23:47:37.944Z,8.28
2019-05-07T23:50:07.684Z,6.70
2019-05-07T23:52:36.924Z,7.60
2019-05-07T23:55:06.464Z,7.62
2019-05-07T23:57:36.272Z,8.28
